Sandy City
, Sandy
Last Weather Update:02/23/2012 7:00:00 PM
Date
ETo
ETc
Rain
Irrigation
Req
Temp
Max
Temp
Min
Temp
Avg
Avg RH
Avg Wind
Avg Solar
inches
inches
incehs
inches
F
F
F
%
%
watts/m2
01/01/2012 0.03" 0.00" 0.00" 0.00" 44.0° 20.5° 29.5° 54.6% 0.1 MPH 113.3w/m2
01/02/2012 0.03" 0.00" 0.00" 0.00" 46.0° 21.7° 31.3° 65.2% 0.1 MPH 107.6w/m2
01/03/2012 0.04" 0.00" 0.00" 0.00" 49.3° 26.4° 35.5° 64.9% 0.2 MPH 110.4w/m2
01/04/2012 0.03" 0.00" 0.00" 0.00" 51.8° 24.5° 35.1° 66.9% 0.0 MPH 105.6w/m2
01/05/2012 0.04" 0.00" 0.00" 0.00" 53.5° 26.5° 36.3° 61.8% 0.1 MPH 108.3w/m2
01/06/2012 0.03" 0.00" 0.00" 0.00" 45.9° 24.2° 34.2° 74.2% 0.1 MPH 109.8w/m2
01/07/2012 0.01" 0.00" 0.06" -0.05" 35.6° 22.1° 30.5° 95.5% 0.2 MPH 33.0w/m2
01/08/2012 0.03" 0.00" 0.06" -0.05" 32.6° 15.6° 25.4° 87.3% 0.1 MPH 94.8w/m2
01/09/2012 0.03" 0.00" 0.00" 0.00" 40.8° 18.9° 27.7° 86.7% 0.0 MPH 113.3w/m2
01/10/2012 0.03" 0.00" 0.00" 0.00" 41.3° 19.2° 29.2° 87.2% 0.2 MPH 109.8w/m2
01/11/2012 0.03" 0.00" 0.00" 0.00" 34.0° 18.4° 27.7° 74.1% 0.3 MPH 125.8w/m2
01/12/2012 0.03" 0.00" 0.00" 0.00" 35.6° 13.7° 22.7° 65.2% 0.1 MPH 125.9w/m2
01/13/2012 0.04" 0.00" 0.00" 0.00" 43.5° 14.3° 26.3° 62.3% 0.0 MPH 124.6w/m2
01/14/2012 0.04" 0.00" 0.00" 0.00" 54.0° 20.6° 33.9° 49.8% 0.3 MPH 124.0w/m2
01/15/2012 0.04" 0.00" 0.00" 0.00" 54.6° 45.5° 50.8° 11.5% 1.1 MPH 49.6w/m2
01/16/2012 0.02" 0.00" 0.02" -0.02" 46.1° 15.0° 25.2° 66.1% 0.6 MPH 87.0w/m2
01/17/2012 0.04" 0.00" 0.00" 0.00" 36.4° 9.9° 23.3° 52.1% 0.4 MPH 134.3w/m2
01/18/2012 0.03" 0.00" 0.06" -0.05" 46.5° 26.8° 40.6° 47.8% 0.8 MPH 53.7w/m2
01/19/2012 0.03" 0.00" 0.00" 0.00" 55.7° 39.8° 48.9° 51.6% 0.6 MPH 30.7w/m2
01/20/2012 0.04" 0.00" 0.00" 0.00" 55.4° 38.8° 47.6° 57.5% 0.4 MPH 87.3w/m2
01/21/2012 0.01" 0.00" 0.82" -0.66" 55.2° 32.7° 42.3° 79.6% 1.0 MPH 10.5w/m2
01/22/2012 0.05" 0.00" 0.01" -0.01" 39.4° 30.1° 34.3° 62.8% 0.3 MPH 133.5w/m2
01/23/2012 0.02" 0.00" 0.03" -0.02" 44.8° 31.5° 35.6° 75.8% 0.7 MPH 68.0w/m2
01/24/2012 0.03" 0.00" 0.17" -0.14" 38.7° 27.8° 32.3° 92.8% 0.2 MPH 106.0w/m2
01/25/2012 0.03" 0.00" 0.00" 0.00" 45.4° 28.0° 35.7° 79.0% 0.3 MPH 104.0w/m2
01/26/2012 0.02" 0.00" 0.09" -0.07" 50.6° 31.3° 39.2° 84.2% 0.3 MPH 35.7w/m2
01/27/2012 0.05" 0.00" 0.01" -0.01" 40.2° 23.0° 32.2° 68.5% 0.5 MPH 146.0w/m2
01/28/2012 0.04" 0.00" 0.00" 0.00" 40.7° 17.9° 27.6° 71.6% 0.2 MPH 147.2w/m2
01/29/2012 0.04" 0.00" 0.00" 0.00" 42.7° 21.6° 30.7° 63.3% 0.1 MPH 122.7w/m2
01/30/2012 0.03" 0.00" 0.00" 0.00" 47.2° 24.2° 32.4° 76.6% 0.1 MPH 80.6w/m2
01/31/2012 0.04" 0.00" 0.00" 0.00" 46.9° 22.6° 32.4° 77.0% 0.1 MPH 130.0w/m2
Totals: 1.01" 0.00" 1.33" -1.06" 55.7° 9.9° 33.4° 68.2% 0.3 MPH 97.8w/m2